Time;durP1;ratioP1;P1;durP2;ratioP2;P2;SDS_P1;SDS_P2;PMS_P1;PMS_P2;Temp;Humidity;BMP_temperature;BMP_pressure;BME280_temperature;BME280_humidity;BME280_pressure;Samples;Min_cycle;Max_cycle;Signal;HPM_P1;HPM_P2
2023/01/20 00:01:11;;;;;;;9.45;1.27;;;;;;;-1.59;53.75;100805.75;4983268;28;20037;-71
2023/01/20 00:03:38;;;;;;;5.47;0.75;;;;;;;-1.83;54.82;100816.63;5000734;28;20039;-74
2023/01/20 00:06:04;;;;;;;7.22;0.90;;;;;;;-1.59;54.08;100828.81;5001255;28;20079;-74
2023/01/20 00:08:30;;;;;;;2.45;0.75;;;;;;;-1.70;54.40;100837.25;4987265;28;20355;-68
2023/01/20 00:10:55;;;;;;;3.38;0.80;;;;;;;-1.45;53.84;100834.06;4998249;28;20049;-68
2023/01/20 00:13:21;;;;;;;2.33;0.85;;;;;;;-1.18;52.86;100828.31;5002603;28;20106;-70
2023/01/20 00:15:47;;;;;;;3.92;1.67;;;;;;;-1.60;54.14;100832.25;4990369;28;20424;-68
2023/01/20 00:18:13;;;;;;;3.95;0.50;;;;;;;-1.60;54.68;100836.47;4999179;28;20037;-68
2023/01/20 00:20:38;;;;;;;2.33;0.93;;;;;;;-1.40;53.86;100835.00;4998162;28;20102;-69
2023/01/20 00:23:04;;;;;;;5.38;0.90;;;;;;;-1.63;54.45;100839.88;4983723;28;20128;-68
2023/01/20 00:25:29;;;;;;;7.97;0.90;;;;;;;-1.18;53.69;100832.59;4981251;28;20057;-67
2023/01/20 00:27:55;;;;;;;0.95;0.45;;;;;;;-1.09;53.13;100834.38;5000236;28;20033;-68
2023/01/20 00:30:22;;;;;;;4.65;1.02;;;;;;;-1.66;54.48;100833.88;4972701;28;20923;-68
2023/01/20 00:32:48;;;;;;;5.70;0.70;;;;;;;-1.22;53.78;100841.09;4981924;28;20032;-68
2023/01/20 00:35:14;;;;;;;4.35;0.82;;;;;;;-1.30;53.78;100840.19;5007150;28;20263;-68
2023/01/20 00:37:41;;;;;;;3.35;0.45;;;;;;;-1.44;54.04;100838.38;5011845;28;20025;-68
2023/01/20 00:40:08;;;;;;;4.88;1.08;;;;;;;-1.07;53.08;100837.81;5002338;28;20625;-68
2023/01/20 00:42:33;;;;;;;3.88;0.35;;;;;;;-1.51;54.46;100833.16;4997381;28;20029;-67
2023/01/20 00:44:58;;;;;;;7.82;0.82;;;;;;;-1.23;53.65;100839.38;4989493;28;20468;-68
2023/01/20 00:47:24;;;;;;;3.20;0.55;;;;;;;-1.30;53.91;100837.63;5000387;28;20037;-69
2023/01/20 00:49:49;;;;;;;7.57;1.15;;;;;;;-1.20;53.11;100844.53;5002160;28;20045;-68
2023/01/20 00:52:17;;;;;;;4.82;1.02;;;;;;;-1.54;54.48;100840.81;4981605;28;20100;-68
2023/01/20 00:54:43;;;;;;;3.38;0.90;;;;;;;-2.51;56.80;100850.81;5000780;28;20132;-68
2023/01/20 00:57:09;;;;;;;5.53;2.00;;;;;;;-1.89;55.31;100847.31;4999470;28;20029;-67
2023/01/20 00:59:34;;;;;;;6.85;1.10;;;;;;;-1.80;54.62;100842.28;4996582;28;20064;-68
2023/01/20 01:02:00;;;;;;;3.20;0.88;;;;;;;-2.01;55.29;100849.72;5000675;28;20040;-68
2023/01/20 01:04:25;;;;;;;1.95;0.68;;;;;;;-2.35;55.90;100849.31;4969777;28;20088;-67
2023/01/20 01:06:50;;;;;;;3.17;1.10;;;;;;;-1.79;54.58;100843.13;4988317;28;20154;-69
2023/01/20 01:09:16;;;;;;;3.05;0.57;;;;;;;-1.69;54.07;100849.22;4996068;28;20088;-72
2023/01/20 01:11:41;;;;;;;6.35;0.80;;;;;;;-1.92;54.45;100848.97;5016675;28;20037;-76
2023/01/20 01:14:07;;;;;;;10.60;1.30;;;;;;;-2.26;54.86;100856.25;4999433;28;20143;-70
2023/01/20 01:16:32;;;;;;;3.97;0.90;;;;;;;-2.15;54.85;100864.06;4988037;28;20124;-70
2023/01/20 01:18:58;;;;;;;4.45;1.05;;;;;;;-2.29;55.11;100867.31;5000681;28;20557;-69
2023/01/20 01:21:24;;;;;;;4.07;0.80;;;;;;;-2.22;54.72;100874.25;5002178;28;20029;-68
2023/01/20 01:23:51;;;;;;;1.33;0.50;;;;;;;-2.52;55.93;100879.78;5000054;28;20041;-68
2023/01/20 01:26:17;;;;;;;3.08;0.98;;;;;;;-2.29;55.04;100880.13;4998931;28;20033;-68
2023/01/20 01:28:42;;;;;;;3.53;1.67;;;;;;;-2.19;54.63;100880.25;4984975;28;20039;-68
2023/01/20 01:31:09;;;;;;;4.15;1.02;;;;;;;-2.32;55.47;100882.63;4996337;28;20030;-65
2023/01/20 01:33:34;;;;;;;4.07;1.17;;;;;;;-2.59;56.05;100882.25;4983862;28;20735;-65
2023/01/20 01:36:02;;;;;;;5.00;1.00;;;;;;;-2.33;55.09;100882.63;4982743;28;20028;-65
2023/01/20 01:38:28;;;;;;;3.03;1.23;;;;;;;-2.40;55.44;100889.38;4999763;28;20041;-65
2023/01/20 01:40:54;;;;;;;4.82;0.93;;;;;;;-2.48;55.88;100885.81;4981590;28;20025;-65
2023/01/20 01:43:29;;;;;;;5.22;0.80;;;;;;;-2.33;55.38;100888.59;4997961;28;20155;-65
2023/01/20 01:45:55;;;;;;;3.95;1.40;;;;;;;-2.39;55.25;100890.22;5008712;28;20119;-65
2023/01/20 01:48:39;;;;;;;6.00;0.82;;;;;;;-2.54;55.73;100889.16;5002698;28;20670;-65
2023/01/20 01:51:17;;;;;;;5.63;0.90;;;;;;;-2.39;55.13;100900.47;5000798;28;20136;-65
2023/01/20 01:53:46;;;;;;;5.53;1.45;;;;;;;-2.40;54.96;100904.72;4998643;28;20145;-65
2023/01/20 01:56:13;;;;;;;5.15;1.00;;;;;;;-2.28;55.07;100910.00;5001026;28;20599;-65
2023/01/20 01:58:43;;;;;;;3.42;1.50;;;;;;;-2.50;55.54;100905.41;4995764;28;20100;-66
2023/01/20 02:01:10;;;;;;;3.10;1.30;;;;;;;-2.41;55.58;100918.34;4996762;28;20037;-66
2023/01/20 02:04:10;;;;;;;2.88;0.98;;;;;;;-2.84;56.55;100913.44;4999593;28;20382;-66
2023/01/20 02:06:41;;;;;;;8.43;1.08;;;;;;;-2.68;55.95;100906.84;5017383;28;20556;-65
2023/01/20 02:09:07;;;;;;;3.38;0.85;;;;;;;-2.87;56.87;100913.41;4998437;28;20333;-64
2023/01/20 02:11:40;;;;;;;4.25;1.55;;;;;;;-2.91;56.81;100918.44;4999345;28;20409;-66
2023/01/20 02:14:07;;;;;;;1.45;0.90;;;;;;;-2.55;56.22;100920.72;4997193;28;20053;-66
2023/01/20 02:16:35;;;;;;;2.00;0.70;;;;;;;-3.17;57.86;100915.44;4999036;28;20038;-66
2023/01/20 02:19:31;;;;;;;3.83;1.00;;;;;;;-3.46;58.87;100923.44;4999127;28;20528;-66
2023/01/20 02:22:24;;;;;;;2.55;0.98;;;;;;;-3.19;58.06;100925.63;4999071;28;20601;-66
2023/01/20 02:25:16;;;;;;;2.47;0.75;;;;;;;-2.81;57.27;100932.22;4982239;28;20100;-65
2023/01/20 02:27:49;;;;;;;6.78;1.00;;;;;;;-2.79;56.67;100936.53;4996643;28;20371;-64
2023/01/20 02:30:44;;;;;;;5.22;0.98;;;;;;;-2.87;57.53;100932.97;4996893;28;20038;-68
2023/01/20 02:33:30;;;;;;;5.93;1.63;;;;;;;-2.52;56.39;100937.81;4999426;28;20063;-67
2023/01/20 02:36:07;;;;;;;3.05;0.80;;;;;;;-2.78;57.14;100942.50;4994281;28;20598;-66
2023/01/20 02:38:53;;;;;;;4.88;1.10;;;;;;;-2.61;56.47;100945.34;4995068;28;20049;-67
2023/01/20 02:41:37;;;;;;;1.35;0.68;;;;;;;-2.91;57.43;100942.31;4982116;28;20034;-67
2023/01/20 02:44:26;;;;;;;4.32;1.10;;;;;;;-2.92;57.47;100949.94;4982356;28;20457;-67
2023/01/20 02:47:00;;;;;;;1.65;1.02;;;;;;;-3.05;57.89;100941.19;5000590;28;20038;-76
2023/01/20 02:49:39;;;;;;;2.72;1.30;;;;;;;-2.85;57.38;100949.22;5002868;28;20939;-68
2023/01/20 02:52:13;;;;;;;4.32;1.13;;;;;;;-2.68;56.86;100945.25;4999684;28;20049;-71
2023/01/20 02:54:40;;;;;;;4.20;1.20;;;;;;;-3.66;59.92;100946.06;5002104;28;20057;-71
2023/01/20 02:57:10;;;;;;;3.97;1.38;;;;;;;-2.88;57.97;100942.34;4983698;28;20037;-70
2023/01/20 02:59:41;;;;;;;1.90;1.00;;;;;;;-2.82;57.53;100949.28;5007016;28;20053;-71
2023/01/20 03:02:14;;;;;;;1.77;0.90;;;;;;;-2.92;57.91;100942.28;5011689;28;20037;-70
2023/01/20 03:04:46;;;;;;;2.47;1.05;;;;;;;-2.92;57.64;100955.06;5001220;28;20119;-71
2023/01/20 03:07:13;;;;;;;5.57;0.80;;;;;;;-2.94;58.08;100956.75;5000266;28;20165;-70
2023/01/20 03:09:52;;;;;;;7.55;1.33;;;;;;;-3.03;58.08;100961.69;5000463;28;20492;-71
2023/01/20 03:12:23;;;;;;;3.22;1.00;;;;;;;-2.86;57.91;100967.97;4998585;28;20558;-71
2023/01/20 03:14:51;;;;;;;2.28;1.23;;;;;;;-2.71;57.30;100968.22;5001766;28;20418;-72
2023/01/20 03:17:20;;;;;;;1.88;1.02;;;;;;;-2.56;56.61;100979.53;4998707;28;20042;-70
2023/01/20 03:19:46;;;;;;;1.40;0.90;;;;;;;-2.83;57.32;100975.69;5000992;28;20049;-73
2023/01/20 03:22:12;;;;;;;4.18;1.85;;;;;;;-2.87;57.73;100987.59;5000872;28;20048;-70
2023/01/20 03:24:40;;;;;;;4.45;1.40;;;;;;;-3.23;58.89;100982.66;5001497;28;20049;-70
2023/01/20 03:27:06;;;;;;;4.18;2.22;;;;;;;-2.80;57.82;100991.09;5000397;28;20053;-70
2023/01/20 03:29:32;;;;;;;2.90;1.77;;;;;;;-3.51;60.01;100994.91;5000268;28;20068;-70
2023/01/20 03:31:59;;;;;;;5.25;2.65;;;;;;;-3.22;59.26;101003.97;4999896;28;20041;-72
2023/01/20 03:34:29;;;;;;;5.35;2.50;;;;;;;-2.95;58.50;100995.94;5000714;28;20265;-78
2023/01/20 03:36:55;;;;;;;7.28;3.22;;;;;;;-3.81;61.20;101009.59;5001070;28;20033;-76
2023/01/20 03:39:23;;;;;;;6.68;3.25;;;;;;;-3.33;60.23;101007.19;5000975;28;20049;-74
2023/01/20 03:42:07;;;;;;;5.05;2.92;;;;;;;-3.36;60.31;101006.25;4982371;28;20481;-78
2023/01/20 03:45:00;;;;;;;8.57;2.90;;;;;;;-2.73;58.81;101008.28;4999213;28;20049;-68
2023/01/20 03:47:32;;;;;;;11.75;3.58;;;;;;;-2.99;59.72;101010.38;5000700;28;20465;-69
2023/01/20 03:50:03;;;;;;;9.82;3.88;;;;;;;-3.85;62.02;101025.69;4997986;28;20041;-69
2023/01/20 03:52:41;;;;;;;14.15;4.45;;;;;;;-3.14;60.53;101021.19;5001215;28;20037;-75
2023/01/20 03:55:15;;;;;;;8.95;4.63;;;;;;;-2.69;59.14;101017.72;5008897;28;20049;-75
2023/01/20 03:57:47;;;;;;;11.63;4.20;;;;;;;-2.72;59.39;101020.22;5005754;28;20222;-74
2023/01/20 04:00:14;;;;;;;9.80;4.00;;;;;;;-2.86;59.36;101012.31;5000014;28;20064;-74
2023/01/20 04:02:41;;;;;;;13.15;4.38;;;;;;;-3.27;60.89;101019.25;4988582;28;20079;-76
2023/01/20 04:05:08;;;;;;;15.98;4.13;;;;;;;-2.95;59.60;101006.19;4987922;28;20053;-76
2023/01/20 04:07:38;;;;;;;11.68;5.25;;;;;;;-3.19;60.50;101020.22;4998861;28;22797;-74
2023/01/20 04:10:09;;;;;;;10.68;5.70;;;;;;;-3.01;60.08;101016.28;4999075;28;20050;-75
2023/01/20 04:12:35;;;;;;;8.23;3.97;;;;;;;-3.17;60.53;101021.13;4981543;28;20503;-71
2023/01/20 04:15:00;;;;;;;10.70;4.88;;;;;;;-2.80;59.69;101026.03;4999232;28;20045;-68
2023/01/20 04:17:29;;;;;;;12.82;4.78;;;;;;;-3.03;60.58;101023.94;5000884;28;20537;-65
2023/01/20 04:19:56;;;;;;;10.30;4.72;;;;;;;-2.91;59.94;101025.88;4996830;28;20069;-64
2023/01/20 04:22:33;;;;;;;12.68;4.40;;;;;;;-3.04;60.67;101037.56;5002029;28;20037;-65
2023/01/20 04:25:07;;;;;;;11.60;4.82;;;;;;;-2.79;60.08;101033.75;4995020;28;20053;-65
2023/01/20 04:27:32;;;;;;;9.07;4.88;;;;;;;-2.55;59.09;101042.69;4983421;28;20099;-65
2023/01/20 04:29:57;;;;;;;10.90;5.03;;;;;;;-2.87;59.65;101045.53;4978263;28;20045;-65
2023/01/20 04:32:23;;;;;;;11.10;5.35;;;;;;;-2.94;59.81;101046.25;5001513;28;20261;-65
2023/01/20 04:34:52;;;;;;;7.38;4.55;;;;;;;-2.93;59.66;101042.88;4999362;28;20052;-65
2023/01/20 04:37:17;;;;;;;11.55;4.93;;;;;;;-2.29;58.37;101053.34;4997560;28;20038;-66
2023/01/20 04:39:43;;;;;;;10.43;5.18;;;;;;;-2.77;59.31;101057.66;5000105;28;20060;-66
2023/01/20 04:42:09;;;;;;;9.48;4.95;;;;;;;-2.38;58.24;101054.09;4980876;28;21435;-66
2023/01/20 04:44:35;;;;;;;10.38;4.13;;;;;;;-2.96;59.78;101056.47;4981817;28;20364;-65
2023/01/20 04:47:00;;;;;;;8.85;4.88;;;;;;;-2.90;59.35;101053.16;4995726;28;20120;-65
2023/01/20 04:49:26;;;;;;;18.75;6.28;;;;;;;-2.65;58.98;101059.56;4990940;28;20523;-65
2023/01/20 04:51:51;;;;;;;12.05;4.50;;;;;;;-2.81;59.64;101057.59;5009182;28;20701;-65
2023/01/20 04:54:17;;;;;;;11.00;4.95;;;;;;;-2.74;59.23;101056.84;4997056;28;20499;-65
2023/01/20 04:56:43;;;;;;;10.98;5.65;;;;;;;-2.86;58.92;101057.50;4996880;28;20476;-65
2023/01/20 04:59:08;;;;;;;12.40;4.50;;;;;;;-2.91;59.60;101052.31;4982420;28;20049;-65
2023/01/20 05:01:33;;;;;;;8.85;4.95;;;;;;;-2.64;58.93;101053.63;4998957;28;20693;-65
2023/01/20 05:03:59;;;;;;;9.63;4.25;;;;;;;-2.63;58.89;101058.75;4999166;28;20049;-65
2023/01/20 05:06:24;;;;;;;12.45;4.55;;;;;;;-2.45;58.25;101070.16;4983089;28;20136;-65
2023/01/20 05:08:50;;;;;;;9.93;4.55;;;;;;;-2.43;58.03;101076.16;5000261;28;20073;-68
2023/01/20 05:11:15;;;;;;;8.52;4.32;;;;;;;-2.22;57.52;101068.84;4997445;28;20116;-68
2023/01/20 05:13:41;;;;;;;8.55;4.68;;;;;;;-2.24;57.37;101079.91;5000181;28;20060;-68
2023/01/20 05:16:07;;;;;;;11.95;5.55;;;;;;;-2.99;59.81;101076.88;4999930;28;20588;-67
2023/01/20 05:18:33;;;;;;;9.95;4.97;;;;;;;-2.91;59.60;101070.22;5002304;28;20048;-67
2023/01/20 05:20:58;;;;;;;13.07;5.07;;;;;;;-2.95;59.51;101081.22;4985038;28;20033;-67
2023/01/20 05:23:24;;;;;;;18.08;6.13;;;;;;;-2.44;58.17;101079.56;5000660;28;21230;-68
2023/01/20 05:25:50;;;;;;;12.75;5.43;;;;;;;-2.44;58.36;101079.56;4997843;28;20037;-69
2023/01/20 05:28:15;;;;;;;12.13;5.03;;;;;;;-2.73;58.41;101082.47;4998036;28;20041;-68
2023/01/20 05:30:41;;;;;;;11.10;5.22;;;;;;;-2.43;58.33;101094.09;5000815;28;20744;-67
2023/01/20 05:33:06;;;;;;;14.18;5.85;;;;;;;-2.32;57.69;101100.25;4998072;28;20042;-67
2023/01/20 05:35:32;;;;;;;8.50;4.97;;;;;;;-2.96;59.35;101105.06;4970589;28;20085;-67
2023/01/20 05:37:57;;;;;;;12.45;6.35;;;;;;;-2.97;59.58;101110.16;5002291;28;20111;-67
2023/01/20 05:40:22;;;;;;;9.20;4.20;;;;;;;-2.63;58.36;101109.94;4981731;28;20073;-67
2023/01/20 05:42:48;;;;;;;11.45;4.85;;;;;;;-2.77;58.75;101118.22;4999050;28;20033;-68
2023/01/20 05:45:13;;;;;;;12.05;5.45;;;;;;;-2.73;58.64;101110.63;4995904;28;20034;-64
2023/01/20 05:47:39;;;;;;;11.90;5.38;;;;;;;-2.74;58.46;101118.25;5000121;28;20372;-64
2023/01/20 05:50:05;;;;;;;9.38;5.30;;;;;;;-2.24;57.52;101116.59;4980656;28;20051;-64
2023/01/20 05:52:31;;;;;;;8.77;4.35;;;;;;;-2.43;58.25;101129.91;5000101;28;20156;-64
2023/01/20 05:54:56;;;;;;;11.25;5.50;;;;;;;-2.71;58.67;101119.19;4998952;28;20052;-65
2023/01/20 05:57:25;;;;;;;11.63;5.85;;;;;;;-2.37;58.18;101130.03;4999449;28;20627;-67
2023/01/20 05:59:51;;;;;;;8.30;5.20;;;;;;;-2.96;59.77;101133.22;5002486;28;20140;-71
2023/01/20 06:02:18;;;;;;;11.63;4.93;;;;;;;-2.76;59.60;101133.59;4999281;28;20729;-72
2023/01/20 06:04:47;;;;;;;15.02;5.05;;;;;;;-2.48;58.53;101134.09;4999261;28;20037;-71
2023/01/20 06:07:14;;;;;;;14.63;5.38;;;;;;;-2.87;59.00;101142.72;5001911;28;20044;-72
2023/01/20 06:09:40;;;;;;;15.60;6.13;;;;;;;-3.03;59.49;101145.81;5000318;28;20041;-72
2023/01/20 06:12:06;;;;;;;11.32;5.72;;;;;;;-2.52;57.87;101152.78;4986691;28;20099;-73
2023/01/20 06:14:31;;;;;;;12.55;4.93;;;;;;;-2.27;57.35;101157.53;4998074;28;20686;-72
2023/01/20 06:16:59;;;;;;;12.93;6.18;;;;;;;-2.17;57.18;101157.69;5000928;28;20076;-71
2023/01/20 06:19:25;;;;;;;11.18;5.65;;;;;;;-2.47;57.85;101154.63;4987194;28;20046;-68
2023/01/20 06:21:52;;;;;;;9.77;4.72;;;;;;;-2.47;58.24;101159.75;5003407;28;20033;-66
2023/01/20 06:24:17;;;;;;;11.68;5.70;;;;;;;-2.46;57.77;101161.44;4999388;28;20333;-67
2023/01/20 06:26:43;;;;;;;12.60;5.45;;;;;;;-2.49;58.14;101170.75;5006210;28;20508;-66
2023/01/20 06:29:08;;;;;;;9.65;5.53;;;;;;;-2.82;58.62;101171.00;5001041;28;20041;-66
2023/01/20 06:31:33;;;;;;;14.20;6.15;;;;;;;-2.30;57.77;101170.25;5002025;28;20073;-66
2023/01/20 06:33:59;;;;;;;13.77;6.05;;;;;;;-2.65;58.64;101180.72;4966973;28;20140;-66
2023/01/20 06:36:24;;;;;;;21.67;6.82;;;;;;;-2.25;57.26;101181.44;4992687;28;20033;-66
2023/01/20 06:38:51;;;;;;;13.40;6.15;;;;;;;-2.32;57.09;101178.75;5006073;28;20065;-65
2023/01/20 06:41:18;;;;;;;15.40;6.82;;;;;;;-3.01;59.22;101185.09;4995416;28;20787;-65
2023/01/20 06:43:44;;;;;;;13.45;5.88;;;;;;;-2.72;58.69;101185.69;5008038;28;20040;-67
2023/01/20 06:46:12;;;;;;;11.85;5.95;;;;;;;-2.59;58.29;101190.19;5025554;28;20132;-68
2023/01/20 06:48:40;;;;;;;12.60;5.15;;;;;;;-3.05;59.30;101179.03;5000622;28;20864;-66
2023/01/20 06:51:09;;;;;;;14.27;6.97;;;;;;;-2.33;57.54;101192.41;5003297;28;20135;-66
2023/01/20 06:53:34;;;;;;;9.20;5.35;;;;;;;-2.43;57.39;101199.88;5001447;28;20033;-65
2023/01/20 06:56:00;;;;;;;16.27;5.95;;;;;;;-3.01;58.80;101197.88;5004934;28;20060;-64
2023/01/20 06:58:29;;;;;;;12.55;6.03;;;;;;;-2.77;58.85;101208.63;5002759;28;20658;-64
2023/01/20 07:00:56;;;;;;;11.73;5.93;;;;;;;-2.73;58.59;101212.97;5004325;28;20045;-64
2023/01/20 07:03:22;;;;;;;14.40;5.82;;;;;;;-3.17;60.18;101218.00;4999808;28;20090;-64
2023/01/20 07:06:00;;;;;;;15.00;5.82;;;;;;;-2.52;58.34;101216.78;5001266;28;20682;-66
2023/01/20 07:08:26;;;;;;;13.27;5.93;;;;;;;-2.74;58.64;101224.00;4998270;28;20038;-64
2023/01/20 07:10:51;;;;;;;14.25;6.25;;;;;;;-2.52;58.45;101225.31;5003741;28;20052;-66
2023/01/20 07:13:17;;;;;;;13.43;6.65;;;;;;;-2.54;58.23;101224.41;5000109;28;20032;-64
2023/01/20 07:15:42;;;;;;;17.30;7.25;;;;;;;-2.25;57.47;101230.09;5001812;28;20050;-63
2023/01/20 07:18:07;;;;;;;14.25;7.03;;;;;;;-2.18;57.09;101233.63;5002536;28;20025;-64
2023/01/20 07:20:33;;;;;;;9.90;4.82;;;;;;;-2.47;57.50;101241.66;5001012;28;20184;-64
2023/01/20 07:22:59;;;;;;;12.70;5.47;;;;;;;-2.52;57.70;101247.50;5001176;28;20248;-63
2023/01/20 07:25:25;;;;;;;13.90;6.43;;;;;;;-2.47;56.97;101246.78;4999773;28;20064;-64
2023/01/20 07:27:52;;;;;;;11.20;6.07;;;;;;;-1.99;55.88;101255.34;5003031;28;20042;-67
2023/01/20 07:30:17;;;;;;;13.57;5.75;;;;;;;-2.25;56.35;101260.81;5001698;28;20128;-67
2023/01/20 07:32:43;;;;;;;13.38;6.25;;;;;;;-2.48;57.25;101260.38;5002016;28;20037;-67
2023/01/20 07:35:09;;;;;;;11.75;5.68;;;;;;;-2.39;56.78;101269.94;5010732;28;20030;-67
2023/01/20 07:37:34;;;;;;;12.80;5.47;;;;;;;-2.19;56.69;101269.47;5006399;28;20084;-67
2023/01/20 07:40:15;;;;;;;16.25;6.35;;;;;;;-2.47;57.41;101271.47;4976243;28;21619;-67
2023/01/20 07:42:41;;;;;;;15.68;5.38;;;;;;;-2.28;57.11;101273.59;5000849;28;20037;-67
2023/01/20 07:45:08;;;;;;;15.30;6.43;;;;;;;-3.01;58.15;101277.16;4970058;28;20582;-66
2023/01/20 07:47:34;;;;;;;13.75;7.00;;;;;;;-2.78;57.96;101291.34;5001404;28;20042;-67
2023/01/20 07:49:59;;;;;;;15.05;6.97;;;;;;;-3.14;59.30;101297.34;4991750;28;20399;-68
2023/01/20 07:52:25;;;;;;;18.55;7.65;;;;;;;-2.56;57.78;101302.00;4984713;28;20033;-67
2023/01/20 07:54:50;;;;;;;14.88;6.93;;;;;;;-2.44;56.93;101298.00;5000721;28;20802;-66
2023/01/20 07:57:16;;;;;;;13.18;5.90;;;;;;;-2.83;58.19;101310.81;4999867;28;20159;-66
2023/01/20 07:59:41;;;;;;;13.80;6.55;;;;;;;-3.00;59.17;101317.25;4982811;28;20041;-67
2023/01/20 08:02:08;;;;;;;15.00;7.03;;;;;;;-2.43;57.55;101317.66;5002493;28;20033;-67
2023/01/20 08:04:33;;;;;;;15.77;7.10;;;;;;;-2.77;57.57;101310.09;4998203;28;20132;-68
2023/01/20 08:06:59;;;;;;;17.45;7.35;;;;;;;-2.63;57.74;101332.56;5001344;28;20051;-68
2023/01/20 08:09:25;;;;;;;14.20;6.72;;;;;;;-2.41;56.93;101322.81;4981078;28;20494;-68
2023/01/20 08:11:50;;;;;;;17.83;8.05;;;;;;;-1.95;55.61;101326.31;4999471;28;20036;-68
2023/01/20 08:14:15;;;;;;;17.23;6.95;;;;;;;-3.01;58.68;101321.50;4995915;28;20572;-68
2023/01/20 08:16:41;;;;;;;15.10;7.28;;;;;;;-2.30;56.76;101336.69;4981095;28;20529;-68
2023/01/20 08:19:07;;;;;;;18.10;7.93;;;;;;;-2.04;56.04;101341.50;4997768;28;20068;-67
2023/01/20 08:21:32;;;;;;;16.10;7.40;;;;;;;-3.00;58.54;101345.41;5002729;28;20041;-68
2023/01/20 08:23:59;;;;;;;17.10;7.78;;;;;;;-3.06;58.79;101341.84;4999895;28;20255;-68
2023/01/20 08:26:27;;;;;;;16.65;7.90;;;;;;;-3.01;58.40;101354.75;4996598;28;20314;-68
2023/01/20 08:28:53;;;;;;;17.42;6.80;;;;;;;-2.78;57.92;101360.41;4998101;28;20050;-68
2023/01/20 08:31:21;;;;;;;16.02;7.40;;;;;;;-2.84;58.59;101367.94;4999805;28;20080;-68
2023/01/20 08:33:48;;;;;;;16.20;7.13;;;;;;;-2.77;58.57;101369.81;4969615;28;20378;-67
2023/01/20 08:36:19;;;;;;;14.93;7.38;;;;;;;-2.58;57.37;101375.31;4981361;28;20029;-67
2023/01/20 08:38:46;;;;;;;18.02;8.18;;;;;;;-2.35;56.71;101384.41;4998725;28;20044;-67
2023/01/20 08:41:15;;;;;;;16.08;7.38;;;;;;;-2.37;56.88;101380.94;4998192;28;20487;-67
2023/01/20 08:43:41;;;;;;;13.25;7.35;;;;;;;-1.98;56.07;101385.13;4994514;28;20045;-67
2023/01/20 08:46:09;;;;;;;17.40;8.20;;;;;;;-1.80;55.83;101385.53;4994489;28;20037;-68
2023/01/20 08:48:36;;;;;;;17.85;8.07;;;;;;;-2.23;56.22;101394.03;4992129;28;20037;-67
2023/01/20 08:51:08;;;;;;;17.48;7.68;;;;;;;-1.94;55.71;101397.19;4997121;28;20037;-68
2023/01/20 08:53:34;;;;;;;15.40;7.25;;;;;;;-1.73;55.54;101395.88;4981622;28;20596;-68
2023/01/20 08:56:01;;;;;;;18.33;7.97;;;;;;;-1.98;55.54;101392.81;4980327;28;20164;-67
2023/01/20 08:58:27;;;;;;;16.52;7.28;;;;;;;-1.67;55.24;101396.00;4994418;28;20066;-68
2023/01/20 09:00:53;;;;;;;18.38;8.32;;;;;;;-1.51;54.41;101404.84;4964482;28;20524;-68
2023/01/20 09:03:20;;;;;;;16.83;7.22;;;;;;;-1.58;54.73;101401.28;4992578;28;20063;-68
2023/01/20 09:05:45;;;;;;;15.77;7.30;;;;;;;-1.42;54.51;101410.13;4995807;28;20065;-68
2023/01/20 09:08:11;;;;;;;14.65;7.10;;;;;;;-1.75;55.09;101408.69;4996510;28;20041;-68
2023/01/20 09:10:36;;;;;;;13.60;7.43;;;;;;;-1.29;54.05;101417.22;4992010;28;20042;-68
2023/01/20 09:13:02;;;;;;;15.77;6.80;;;;;;;-1.31;53.58;101420.59;4996138;28;20033;-68
2023/01/20 09:15:27;;;;;;;18.88;7.75;;;;;;;-2.02;55.84;101419.25;4993734;28;20088;-68
2023/01/20 09:17:53;;;;;;;10.23;6.10;;;;;;;-1.45;54.35;101431.44;4995833;28;20055;-68
2023/01/20 09:20:18;;;;;;;15.07;6.60;;;;;;;-1.28;54.13;101433.50;4990757;28;20042;-66
2023/01/20 09:22:44;;;;;;;22.63;8.38;;;;;;;-1.10;53.85;101425.25;4995329;28;20044;-67
2023/01/20 09:25:10;;;;;;;15.25;6.80;;;;;;;-0.90;53.17;101441.00;4992557;28;20120;-67
2023/01/20 09:27:35;;;;;;;14.00;7.57;;;;;;;-0.80;52.99;101445.44;5006224;28;20148;-68
2023/01/20 09:30:02;;;;;;;14.85;6.78;;;;;;;-1.70;54.06;101448.06;4980661;28;20622;-67
2023/01/20 09:32:27;;;;;;;13.95;6.97;;;;;;;-1.07;53.32;101454.38;4994195;28;20032;-67
2023/01/20 09:34:53;;;;;;;16.42;7.88;;;;;;;-1.72;54.23;101456.56;4992738;28;20434;-66
2023/01/20 09:46:07;;;;;;;13.57;6.22;;;;;;;-1.32;53.46;101476.16;4992764;28;20059;-68
2023/01/20 09:54:25;;;;;;;13.10;5.63;;;;;;;-0.98;53.08;101495.63;4991991;28;19940;-68
2023/01/20 09:56:55;;;;;;;13.45;6.18;;;;;;;-0.91;52.59;101488.03;4994073;28;20438;-67
2023/01/20 09:59:33;;;;;;;12.73;6.32;;;;;;;-0.94;52.26;101503.38;4975713;28;20057;-67
2023/01/20 10:02:04;;;;;;;15.10;6.78;;;;;;;-1.17;52.49;101502.09;4990617;28;20038;-67
2023/01/20 10:04:47;;;;;;;14.60;6.68;;;;;;;-1.17;53.20;101507.22;4995618;28;20068;-68
2023/01/20 10:07:39;;;;;;;14.63;7.18;;;;;;;-1.32;53.06;101516.34;4995696;28;20769;-67
2023/01/20 10:10:11;;;;;;;13.93;6.85;;;;;;;-1.20;52.77;101511.41;4996029;28;20065;-68
2023/01/20 10:12:40;;;;;;;16.08;6.03;;;;;;;-1.25;52.74;101518.16;5011245;22;20679;-77
2023/01/20 10:15:08;;;;;;;11.43;4.88;;;;;;;-0.99;52.66;101517.00;4997175;28;20876;-79
2023/01/20 10:17:40;;;;;;;12.48;5.90;;;;;;;-0.98;52.16;101522.97;4981980;28;20056;-79
2023/01/20 10:20:19;;;;;;;19.60;6.10;;;;;;;-0.88;52.00;101524.03;5003725;28;20101;-78
2023/01/20 10:22:51;;;;;;;13.50;6.03;;;;;;;-1.14;52.40;101532.06;4989646;28;20422;-76
2023/01/20 10:25:23;;;;;;;;;;;;;;;-1.16;53.08;101528.59;5006045;28;20091;-77
2023/01/20 10:28:08;;;;;;;12.70;5.30;;;;;;;-1.37;53.58;101531.63;4985858;28;19917;-80
2023/01/20 10:30:36;;;;;;;14.77;6.85;;;;;;;-0.90;52.52;101536.84;4983188;28;20323;-78
2023/01/20 10:33:08;;;;;;;13.35;5.20;;;;;;;-0.31;51.41;101523.25;4983576;28;20045;-79
2023/01/20 10:35:36;;;;;;;;;;;;;;;-0.16;50.70;101536.34;4999311;28;20058;-78
2023/01/20 10:38:07;;;;;;;16.02;5.68;;;;;;;-0.22;50.75;101538.81;4999181;28;19920;-78
2023/01/20 10:40:43;;;;;;;13.40;5.88;;;;;;;0.14;50.39;101540.19;4998631;28;20073;-77
2023/01/20 10:43:17;;;;;;;11.75;6.03;;;;;;;0.07;49.69;101530.66;4983100;28;20127;-80
2023/01/20 10:46:00;;;;;;;12.98;6.20;;;;;;;0.09;50.29;101539.28;4980072;28;20053;-79
2023/01/20 10:48:42;;;;;;;14.75;5.75;;;;;;;0.12;49.97;101539.31;5002553;28;20061;-80
2023/01/20 10:51:22;;;;;;;;;;;;;;;-0.21;50.35;101548.25;4997765;28;20030;-77
2023/01/20 10:54:02;;;;;;;10.80;5.75;;;;;;;-1.37;53.14;101554.72;5000783;28;19963;-80
2023/01/20 10:56:44;;;;;;;15.20;5.85;;;;;;;-0.78;51.95;101551.56;4996560;28;20104;-79
2023/01/20 10:59:15;;;;;;;;;;;;;;;-0.33;50.25;101560.03;5001150;28;20034;-77
2023/01/20 11:01:45;;;;;;;12.07;4.93;;;;;;;-0.24;49.97;101562.75;4964703;28;20192;-79
2023/01/20 11:04:17;;;;;;;11.55;5.18;;;;;;;-0.23;50.19;101567.94;4999606;28;20054;-79
2023/01/20 11:06:44;;;;;;;;;;;;;;;0.01;49.33;101566.56;4965504;28;20050;-76
2023/01/20 11:09:19;;;;;;;16.38;6.25;;;;;;;-0.13;49.84;101569.78;4984171;28;20442;-76
2023/01/20 11:11:46;;;;;;;13.77;6.50;;;;;;;-0.64;51.06;101572.34;4985675;28;20053;-78
2023/01/20 11:14:12;;;;;;;17.08;5.45;;;;;;;-0.42;50.43;101571.88;4969370;28;20129;-79
2023/01/20 11:16:39;;;;;;;12.15;5.63;;;;;;;-0.14;50.72;101577.50;5001923;28;20042;-78
2023/01/20 11:19:06;;;;;;;12.63;6.07;;;;;;;0.34;49.72;101580.75;4986965;28;20038;-79
2023/01/20 11:21:35;;;;;;;10.85;4.88;;;;;;;0.34;48.87;101580.75;5001719;28;20065;-79
2023/01/20 11:24:11;;;;;;;15.90;6.20;;;;;;;0.41;48.04;101577.41;4986392;28;20475;-79
2023/01/20 11:26:37;;;;;;;16.15;5.55;;;;;;;0.22;47.97;101587.44;4984621;28;20049;-80
2023/01/20 11:29:26;;;;;;;15.50;6.65;;;;;;;0.19;48.56;101583.97;4986719;28;20058;-79
2023/01/20 11:31:54;;;;;;;18.17;7.10;;;;;;;0.13;48.00;101589.88;4987294;28;20057;-79
2023/01/20 11:34:36;;;;;;;13.68;5.72;;;;;;;0.39;48.83;101594.53;4987296;28;20022;-79
2023/01/20 11:37:04;;;;;;;13.90;6.35;;;;;;;0.47;48.02;101598.06;5002259;28;20191;-78
2023/01/20 11:39:33;;;;;;;12.43;5.70;;;;;;;-1.10;50.88;101605.69;5004824;28;20400;-79
2023/01/20 11:42:13;;;;;;;11.82;6.05;;;;;;;-0.22;50.22;101609.91;4987950;28;20056;-79
2023/01/20 11:44:50;;;;;;;13.65;5.68;;;;;;;-0.11;49.07;101607.50;4971905;28;20037;-79